Sweetwater, New Jersey
Current Conditions -  °F | °C
As of 9:54 PM on Friday 31 Oct 2014 (Local Time) from KACY Reporting Station
Overcast Overcast  
Wind Chill: 45°   Ceiling: 7000
Heat Index: 48°   Visibility: 10mi
Dew Point: 42°   Wind: 6mph
Humidity: 80%   Direction: 360°N
Pressure: 29.81"   Gusts: NA
Location:  39.637°N, 74.7602°W
Report Text: KACY 010154Z 36005KT 10SM OVC070 09/06 A2981 RMK AO2 SLP095 T00890056
Loading
Personal Weather Stations






























Interactive Weather Map
Tropical Storm Tracking
New forecast layout! Learn more

10-Day Weather Forecast

Advertisements
Track Severe Weather on mobile